Time;durP1;ratioP1;P1;durP2;ratioP2;P2;SDS_P1;SDS_P2;PMS_P1;PMS_P2;Temp;Humidity;BMP_temperature;BMP_pressure;BME280_temperature;BME280_humidity;BME280_pressure;Samples;Min_cycle;Max_cycle;Signal;HPM_P1;HPM_P2
2021/05/17 00:02:54;;;;;;;1.15;0.40;;;14.10;79.70;;;;;;5127152;27;27366;-60
2021/05/17 00:06:22;;;;;;;0.38;0.30;;;14.00;76.70;;;;;;5125572;27;27340;-61
2021/05/17 00:09:35;;;;;;;1.30;0.60;;;14.00;79.60;;;;;;5126640;27;27423;-60
2021/05/17 00:12:47;;;;;;;2.10;0.50;;;14.00;79.80;;;;;;5126644;27;27386;-60
2021/05/17 00:16:00;;;;;;;0.32;0.30;;;13.90;79.80;;;;;;5126896;27;27446;-60
2021/05/17 00:18:50;;;;;;;1.17;0.50;;;13.90;80.80;;;;;;5126463;27;27395;-60
2021/05/17 00:21:38;;;;;;;1.35;0.55;;;13.90;80.70;;;;;;5126604;27;27467;-60
2021/05/17 00:24:36;;;;;;;0.45;0.40;;;13.90;81.40;;;;;;5108399;27;27408;-62
2021/05/17 00:27:33;;;;;;;1.20;0.35;;;13.90;80.40;;;;;;5126406;27;27399;-61
2021/05/17 00:31:00;;;;;;;0.98;0.38;;;13.90;81.40;;;;;;5126770;27;27348;-61
2021/05/17 00:34:06;;;;;;;2.63;0.63;;;13.90;81.50;;;;;;5108091;27;27474;-60
2021/05/17 00:36:58;;;;;;;3.28;0.90;;;13.90;80.20;;;;;;5126215;27;27440;-60
2021/05/17 00:39:49;;;;;;;1.65;0.30;;;13.90;80.80;;;;;;5126545;27;27356;-61
2021/05/17 00:42:47;;;;;;;2.38;0.55;;;13.90;80.50;;;;;;5123287;27;27364;-61
2021/05/17 00:45:58;;;;;;;1.55;0.40;;;13.90;81.10;;;;;;5126248;27;27348;-61
2021/05/17 00:49:26;;;;;;;0.57;0.40;;;13.80;80.50;;;;;;5110203;27;27500;-60
2021/05/17 00:52:32;;;;;;;2.05;0.55;;;13.80;80.70;;;;;;5109566;27;27407;-60
2021/05/17 00:55:39;;;;;;;0.73;0.30;;;13.80;80.60;;;;;;5126078;27;27408;-61
2021/05/17 00:58:51;;;;;;;0.88;0.45;;;13.80;81.20;;;;;;5126133;27;27428;-60
2021/05/17 01:02:08;;;;;;;1.48;0.50;;;13.80;81.30;;;;;;5124763;27;27316;-61
2021/05/17 01:05:37;;;;;;;4.85;0.50;;;13.80;81.00;;;;;;5081893;28;27415;-61
2021/05/17 01:08:51;;;;;;;2.85;0.50;;;13.70;81.40;;;;;;5084712;28;27468;-61
2021/05/17 01:12:17;;;;;;;1.55;0.70;;;13.80;81.40;;;;;;5083783;28;27643;-60
2021/05/17 01:15:29;;;;;;;1.00;0.40;;;13.70;81.30;;;;;;5082790;28;27860;-60
2021/05/17 01:18:39;;;;;;;2.03;0.43;;;13.70;75.40;;;;;;5082921;28;27662;-60
2021/05/17 01:21:48;;;;;;;1.02;0.47;;;13.70;77.90;;;;;;5066793;28;27350;-61
2021/05/17 01:25:19;;;;;;;1.92;0.30;;;13.70;79.40;;;;;;5082701;28;27356;-61
2021/05/17 01:28:23;;;;;;;1.08;0.45;;;13.70;76.80;;;;;;5081097;28;27866;-60
2021/05/17 01:31:38;;;;;;;2.30;0.47;;;13.60;80.70;;;;;;5080773;28;27328;-61
2021/05/17 01:34:45;;;;;;;1.33;0.47;;;13.60;80.80;;;;;;5080801;28;27424;-60
2021/05/17 01:37:52;;;;;;;2.00;0.50;;;13.60;81.40;;;;;;5084623;28;27344;-60
2021/05/17 01:40:50;;;;;;;1.15;0.60;;;13.60;81.30;;;;;;5080574;28;27333;-60
2021/05/17 01:43:38;;;;;;;1.63;0.80;;;13.60;81.10;;;;;;5080535;28;27416;-60
2021/05/17 01:46:27;;;;;;;1.58;0.40;;;13.60;79.60;;;;;;5083402;28;27517;-60
2021/05/17 01:49:39;;;;;;;0.38;0.30;;;13.50;75.10;;;;;;5079932;28;27430;-60
2021/05/17 01:52:57;;;;;;;2.50;0.43;;;13.50;75.80;;;;;;5068062;28;27487;-60
2021/05/17 01:56:04;;;;;;;0.50;0.30;;;13.40;75.20;;;;;;5083313;28;27401;-60
2021/05/17 01:59:09;;;;;;;2.70;0.50;;;13.40;80.30;;;;;;5083315;28;27520;-59
2021/05/17 02:01:56;;;;;;;1.02;0.30;;;13.40;80.70;;;;;;5081096;28;27359;-60
2021/05/17 02:04:53;;;;;;;0.85;0.28;;;13.40;78.30;;;;;;5086603;28;27850;-60
2021/05/17 02:08:02;;;;;;;0.70;0.30;;;13.40;81.00;;;;;;5100995;28;27470;-61
2021/05/17 02:10:59;;;;;;;0.20;0.20;;;13.40;81.40;;;;;;5100326;28;27425;-61
2021/05/17 02:13:57;;;;;;;1.08;0.38;;;13.40;81.40;;;;;;5102236;28;27543;-60
2021/05/17 02:17:25;;;;;;;1.70;0.60;;;13.40;81.10;;;;;;5086152;28;27402;-60
2021/05/17 02:20:37;;;;;;;0.65;0.65;;;13.40;81.00;;;;;;5101080;28;27403;-61
2021/05/17 02:23:47;;;;;;;0.30;0.30;;;13.40;81.40;;;;;;5066410;28;27484;-60
2021/05/17 02:26:54;;;;;;;1.15;0.47;;;13.30;82.10;;;;;;5103888;28;27405;-60
2021/05/17 02:30:21;;;;;;;1.23;0.38;;;13.30;80.20;;;;;;5101072;28;27853;-61
2021/05/17 02:33:51;;;;;;;0.75;0.30;;;13.30;81.00;;;;;;5101788;28;27317;-60
2021/05/17 02:36:57;;;;;;;0.75;0.30;;;13.30;81.60;;;;;;5103105;28;27325;-60
2021/05/17 02:40:11;;;;;;;1.10;0.50;;;13.20;81.70;;;;;;5101151;28;27341;-61
2021/05/17 02:43:47;;;;;;;0.50;0.50;;;13.20;81.90;;;;;;5102021;28;27387;-61
2021/05/17 02:47:37;;;;;;;0.75;0.60;;;13.20;81.40;;;;;;5103588;28;27431;-61
2021/05/17 02:50:57;;;;;;;0.98;0.30;;;13.20;76.80;;;;;;5103753;28;27382;-61
2021/05/17 02:54:05;;;;;;;0.45;0.35;;;13.10;79.70;;;;;;5103469;28;27375;-61
2021/05/17 02:57:22;;;;;;;0.68;0.40;;;13.10;79.70;;;;;;5099721;28;27423;-60
2021/05/17 03:00:53;;;;;;;0.85;0.40;;;13.10;76.60;;;;;;5101323;28;27474;-60
2021/05/17 03:04:05;;;;;;;1.45;0.65;;;13.00;75.80;;;;;;5102230;28;27432;-61
2021/05/17 03:07:46;;;;;;;3.38;0.57;;;13.00;76.90;;;;;;5101967;28;27488;-60
2021/05/17 03:10:53;;;;;;;1.48;0.50;;;13.00;77.70;;;;;;5099389;28;27472;-61
2021/05/17 03:14:19;;;;;;;0.30;0.30;;;13.00;77.70;;;;;;5088142;28;27403;-61
2021/05/17 03:17:33;;;;;;;0.75;0.28;;;13.00;76.20;;;;;;5102641;28;27332;-61
2021/05/17 03:20:40;;;;;;;1.05;0.30;;;13.00;81.10;;;;;;5088209;28;27421;-60
2021/05/17 03:23:48;;;;;;;1.02;0.43;;;13.00;82.30;;;;;;5103608;28;27380;-61
2021/05/17 03:26:54;;;;;;;4.18;1.40;;;13.00;82.60;;;;;;5102936;28;27421;-60
2021/05/17 03:30:01;;;;;;;3.03;0.60;;;13.00;81.50;;;;;;5098991;28;27439;-60
2021/05/17 03:33:07;;;;;;;0.82;0.38;;;13.00;82.70;;;;;;5102744;28;27446;-60
2021/05/17 03:36:19;;;;;;;2.35;0.40;;;13.00;82.70;;;;;;5102650;28;27476;-60
2021/05/17 03:39:45;;;;;;;4.03;0.63;;;13.00;82.60;;;;;;5079403;28;27508;-60
2021/05/17 03:42:58;;;;;;;1.73;0.50;;;13.00;82.70;;;;;;5105765;28;27478;-60
2021/05/17 03:46:04;;;;;;;2.08;0.50;;;12.90;82.90;;;;;;5105746;28;27467;-60
2021/05/17 03:49:10;;;;;;;1.58;0.50;;;12.90;82.80;;;;;;5105190;28;27940;-60
2021/05/17 03:52:37;;;;;;;3.05;0.60;;;12.90;83.00;;;;;;5105804;28;27454;-60
2021/05/17 03:55:48;;;;;;;0.52;0.30;;;12.90;82.90;;;;;;5106137;28;27545;-61
2021/05/17 03:59:13;;;;;;;1.42;0.70;;;12.90;82.60;;;;;;5106502;28;27429;-60
2021/05/17 04:02:34;;;;;;;1.98;0.63;;;12.90;83.30;;;;;;5105952;28;27564;-60
2021/05/17 04:15:42;;;;;;;0.60;0.52;;;12.90;83.50;;;;;;5103473;28;27426;-61
2021/05/17 04:18:55;;;;;;;1.75;0.63;;;12.90;83.50;;;;;;5105199;28;27410;-60
2021/05/17 04:22:19;;;;;;;1.50;0.47;;;12.90;83.60;;;;;;5106627;28;27345;-61
2021/05/17 04:25:46;;;;;;;1.00;0.50;;;12.90;83.30;;;;;;5106535;28;27564;-61
2021/05/17 04:28:45;;;;;;;2.05;0.40;;;12.90;82.80;;;;;;5105895;28;27356;-60
2021/05/17 04:32:01;;;;;;;6.20;0.70;;;12.90;83.50;;;;;;5091556;28;27455;-61
2021/05/17 04:34:57;;;;;;;0.47;0.30;;;12.90;83.10;;;;;;5106865;28;27384;-61
2021/05/17 04:37:52;;;;;;;1.00;0.50;;;12.90;83.10;;;;;;5106480;28;26873;-60
2021/05/17 04:41:13;;;;;;;3.13;0.30;;;12.90;83.40;;;;;;5103100;28;27876;-61
2021/05/17 04:44:11;;;;;;;2.50;0.40;;;12.90;83.00;;;;;;5105745;28;27487;-61
2021/05/17 04:47:02;;;;;;;1.75;0.60;;;12.90;82.50;;;;;;5106382;28;27371;-60
2021/05/17 04:50:00;;;;;;;1.13;0.40;;;12.90;82.50;;;;;;5106255;28;27473;-60
2021/05/17 04:53:13;;;;;;;0.98;0.50;;;12.90;83.10;;;;;;5105337;28;27332;-61
2021/05/17 04:56:09;;;;;;;0.30;0.30;;;12.90;82.80;;;;;;5083492;28;27618;-61
2021/05/17 04:59:22;;;;;;;0.22;0.17;;;12.90;83.00;;;;;;5106455;28;27410;-59
2021/05/17 05:02:18;;;;;;;1.55;0.40;;;12.90;83.10;;;;;;5102485;28;27406;-60
2021/05/17 05:05:32;;;;;;;1.05;0.50;;;12.90;82.90;;;;;;5084676;28;27562;-60
2021/05/17 05:09:18;;;;;;;2.60;0.47;;;12.90;82.60;;;;;;5081961;28;27475;-60
2021/05/17 05:12:31;;;;;;;0.90;0.63;;;12.90;82.60;;;;;;5085202;28;27426;-60
2021/05/17 05:15:42;;;;;;;1.70;0.60;;;12.90;82.90;;;;;;5085533;28;27619;-60
2021/05/17 05:18:33;;;;;;;0.52;0.50;;;12.90;83.00;;;;;;5085385;28;27398;-60
2021/05/17 05:21:35;;;;;;;2.45;0.60;;;12.90;83.20;;;;;;5085337;28;27417;-60
2021/05/17 05:24:28;;;;;;;2.28;0.80;;;12.90;82.80;;;;;;5085229;28;27423;-60
2021/05/17 05:30:47;;;;;;;0.80;0.50;;;13.00;83.30;;;;;;5085424;28;27419;-61
2021/05/17 05:33:37;;;;;;;0.73;0.57;;;13.00;83.00;;;;;;5081457;28;27321;-61
2021/05/17 05:36:24;;;;;;;2.13;0.50;;;13.10;81.60;;;;;;5085526;28;27411;-60
2021/05/17 05:39:15;;;;;;;0.30;0.30;;;13.10;81.30;;;;;;5081158;28;27421;-61
2021/05/17 05:42:06;;;;;;;3.22;0.30;;;13.20;78.80;;;;;;5082043;28;27468;-61
2021/05/17 05:45:18;;;;;;;0.80;0.30;;;13.20;79.30;;;;;;5085287;28;27320;-61
2021/05/17 05:48:21;;;;;;;1.27;0.30;;;13.20;78.30;;;;;;5085189;28;27457;-61
2021/05/17 05:51:34;;;;;;;1.30;0.50;;;13.20;76.90;;;;;;5084690;28;27438;-61
2021/05/17 05:54:34;;;;;;;1.92;0.30;;;13.20;76.60;;;;;;5084426;28;27623;-60
2021/05/17 05:57:29;;;;;;;2.10;0.90;;;13.20;77.20;;;;;;5080807;28;27349;-61
2021/05/17 06:00:45;;;;;;;1.95;0.50;;;13.20;77.30;;;;;;5070308;28;27369;-61
2021/05/17 06:03:40;;;;;;;1.20;0.80;;;13.20;77.30;;;;;;5100427;27;27330;-61
2021/05/17 06:06:30;;;;;;;0.82;0.50;;;13.20;78.10;;;;;;5125920;27;27363;-60
2021/05/17 06:09:21;;;;;;;1.98;0.60;;;13.30;78.30;;;;;;5125282;27;27415;-59
2021/05/17 06:12:27;;;;;;;3.22;0.60;;;13.30;77.60;;;;;;5125940;27;27386;-60
2021/05/17 06:15:33;;;;;;;4.45;0.57;;;13.40;78.30;;;;;;5125563;27;27566;-59
2021/05/17 06:18:39;;;;;;;1.90;0.60;;;13.40;78.00;;;;;;5124954;27;27584;-58
2021/05/17 06:21:36;;;;;;;0.73;0.50;;;13.40;77.90;;;;;;5125534;27;27361;-59
2021/05/17 06:24:54;;;;;;;2.75;0.57;;;13.40;78.80;;;;;;5121913;27;27472;-59
2021/05/17 06:27:51;;;;;;;3.35;0.50;;;13.40;77.90;;;;;;5125306;27;27333;-59
2021/05/17 06:31:07;;;;;;;1.35;0.68;;;13.50;78.00;;;;;;5125610;27;27915;-59
2021/05/17 06:34:04;;;;;;;1.08;0.40;;;13.50;78.30;;;;;;5124736;27;27394;-60
2021/05/17 06:37:15;;;;;;;2.42;1.15;;;13.50;78.70;;;;;;5125562;27;27386;-60
2021/05/17 06:40:11;;;;;;;2.22;0.75;;;13.50;78.30;;;;;;5125524;27;27311;-59
2021/05/17 06:43:03;;;;;;;2.58;0.75;;;13.50;78.30;;;;;;5125401;27;27346;-59
2021/05/17 06:45:54;;;;;;;2.85;0.77;;;13.50;78.70;;;;;;5125024;27;27490;-59
2021/05/17 06:48:45;;;;;;;2.55;0.60;;;13.50;79.30;;;;;;5124958;27;27394;-59
2021/05/17 06:51:42;;;;;;;0.88;0.38;;;13.50;79.00;;;;;;5125353;27;27397;-62
2021/05/17 06:54:43;;;;;;;1.77;0.55;;;13.50;80.00;;;;;;5084804;27;27988;-59
2021/05/17 07:01:37;;;;;;;2.15;0.70;;;13.60;79.00;;;;;;5124250;27;27612;-60
2021/05/17 07:04:40;;;;;;;2.17;0.82;;;13.60;80.30;;;;;;5124350;27;27411;-60
2021/05/17 07:07:51;;;;;;;0.82;0.52;;;13.70;81.30;;;;;;5124784;27;27845;-60
2021/05/17 07:14:06;;;;;;;3.55;0.80;;;13.80;80.40;;;;;;5121800;27;26928;-60
2021/05/17 07:17:06;;;;;;;1.50;0.60;;;13.90;79.80;;;;;;5124173;27;27328;-60
2021/05/17 07:20:00;;;;;;;3.33;1.33;;;13.90;80.50;;;;;;5086328;27;27540;-59
2021/05/17 07:26:26;;;;;;;1.63;0.60;;;14.40;80.30;;;;;;5083353;27;27597;-60
2021/05/17 07:29:17;;;;;;;4.88;0.68;;;14.50;81.50;;;;;;5127918;27;27377;-60
2021/05/17 07:32:23;;;;;;;2.05;0.90;;;14.60;81.10;;;;;;5128111;27;27438;-60
2021/05/17 07:35:10;;;;;;;2.08;0.80;;;14.70;79.70;;;;;;5128021;27;27493;-60
2021/05/17 07:38:15;;;;;;;4.10;1.02;;;14.70;80.30;;;;;;5095195;27;27381;-60
2021/05/17 07:41:06;;;;;;;0.75;0.60;;;14.80;80.90;;;;;;5127467;27;27341;-60
2021/05/17 07:44:00;;;;;;;2.25;0.75;;;14.80;79.90;;;;;;5127927;27;27449;-60
2021/05/17 07:47:12;;;;;;;3.00;1.23;;;14.80;79.70;;;;;;5099055;27;27440;-60
2021/05/17 07:50:03;;;;;;;1.70;1.13;;;14.80;79.40;;;;;;5126970;27;27379;-59
2021/05/17 07:52:53;;;;;;;2.65;1.40;;;14.90;79.50;;;;;;5128097;27;27458;-60
2021/05/17 07:55:47;;;;;;;1.35;0.50;;;14.90;79.50;;;;;;5127737;27;27371;-60
2021/05/17 07:58:45;;;;;;;3.42;0.70;;;14.90;80.40;;;;;;5128002;27;27378;-60
2021/05/17 08:01:37;;;;;;;2.42;0.85;;;15.00;81.60;;;;;;5124741;27;27415;-60
2021/05/17 08:04:27;;;;;;;2.22;1.20;;;15.00;80.30;;;;;;5126868;27;27402;-60
2021/05/17 08:07:18;;;;;;;3.38;1.42;;;15.00;80.30;;;;;;5108652;27;28018;-60
2021/05/17 08:10:23;;;;;;;2.35;0.80;;;15.00;80.90;;;;;;5124482;27;27367;-59
2021/05/17 08:13:13;;;;;;;2.05;0.90;;;15.10;80.40;;;;;;5127402;27;27321;-60
2021/05/17 08:16:18;;;;;;;3.22;0.50;;;15.10;80.50;;;;;;5127454;27;27469;-60
2021/05/17 08:19:24;;;;;;;1.63;0.77;;;15.10;80.90;;;;;;5126209;27;27858;-60
2021/05/17 08:22:30;;;;;;;0.93;0.50;;;15.40;79.90;;;;;;5127342;27;27462;-60
2021/05/17 08:25:35;;;;;;;1.55;0.80;;;15.60;78.70;;;;;;5127249;27;27317;-60
2021/05/17 08:28:26;;;;;;;2.22;1.20;;;15.80;79.60;;;;;;5122834;27;27300;-60
2021/05/17 08:31:21;;;;;;;1.60;1.30;;;16.10;78.00;;;;;;5127163;27;27467;-59
2021/05/17 08:34:14;;;;;;;1.33;0.90;;;16.20;78.10;;;;;;5127102;27;27412;-60
2021/05/17 08:37:04;;;;;;;0.52;0.52;;;16.20;78.70;;;;;;5126413;27;27317;-60
2021/05/17 08:39:54;;;;;;;2.10;0.70;;;16.20;79.00;;;;;;5127383;27;27449;-60
2021/05/17 08:42:41;;;;;;;1.35;0.57;;;16.20;79.80;;;;;;5108399;27;27853;-59
2021/05/17 08:45:32;;;;;;;2.40;0.90;;;16.20;80.10;;;;;;5127244;27;27461;-60
2021/05/17 08:48:23;;;;;;;1.15;0.50;;;16.20;80.30;;;;;;5123533;27;27434;-59
2021/05/17 08:51:30;;;;;;;1.23;0.55;;;16.10;77.70;;;;;;5126915;27;27407;-60
2021/05/17 08:54:26;;;;;;;1.35;0.50;;;16.20;79.10;;;;;;5126929;27;27450;-59
2021/05/17 08:57:19;;;;;;;1.75;0.85;;;16.30;79.80;;;;;;5126803;27;27395;-60
2021/05/17 09:00:31;;;;;;;1.33;0.43;;;16.40;77.80;;;;;;5126801;27;27492;-59
2021/05/17 09:03:21;;;;;;;2.70;0.55;;;16.40;78.50;;;;;;5125706;27;27465;-60
2021/05/17 09:06:22;;;;;;;3.08;0.70;;;16.50;77.60;;;;;;5126932;27;27961;-60
2021/05/17 09:09:31;;;;;;;0.80;0.50;;;16.50;75.80;;;;;;5099346;27;27479;-60
2021/05/17 09:12:32;;;;;;;4.25;0.75;;;16.40;76.40;;;;;;5108019;27;27589;-60
2021/05/17 09:15:48;;;;;;;1.25;0.47;;;16.40;76.40;;;;;;5126794;27;27420;-60
2021/05/17 09:18:56;;;;;;;1.73;0.70;;;16.50;77.50;;;;;;5126404;27;27408;-60
2021/05/17 09:22:11;;;;;;;4.68;1.13;;;16.50;75.70;;;;;;5126737;27;27333;-64
2021/05/17 09:25:39;;;;;;;1.25;0.60;;;16.60;74.10;;;;;;5126149;27;27373;-63
2021/05/17 09:28:30;;;;;;;1.35;0.70;;;16.60;74.70;;;;;;5126206;27;27356;-65
2021/05/17 09:31:23;;;;;;;3.55;0.68;;;16.60;76.10;;;;;;5126413;27;27358;-59
2021/05/17 09:34:41;;;;;;;2.72;0.80;;;16.70;78.60;;;;;;5126189;27;27511;-59
2021/05/17 09:37:50;;;;;;;3.58;1.23;;;16.60;75.70;;;;;;5126173;27;27410;-59
2021/05/17 09:41:18;;;;;;;3.92;1.33;;;16.70;81.00;;;;;;5126068;27;27318;-59
2021/05/17 09:44:46;;;;;;;3.05;0.90;;;16.80;78.90;;;;;;5125495;27;27557;-59
2021/05/17 09:48:20;;;;;;;3.97;0.95;;;17.00;74.90;;;;;;5125817;27;27381;-58
2021/05/17 09:51:11;;;;;;;2.63;0.52;;;17.10;76.30;;;;;;5125782;27;27404;-59
2021/05/17 09:53:56;;;;;;;3.45;1.10;;;17.30;76.40;;;;;;5126135;27;27462;-57
2021/05/17 09:57:07;;;;;;;4.75;1.02;;;17.50;76.10;;;;;;5122553;27;27450;-59
2021/05/17 10:00:18;;;;;;;4.47;0.90;;;17.70;76.40;;;;;;5125285;27;27332;-59
2021/05/17 10:03:45;;;;;;;2.25;0.63;;;17.90;75.30;;;;;;5125098;27;27586;-56
2021/05/17 10:06:53;;;;;;;4.18;1.08;;;18.00;75.90;;;;;;5125278;27;27415;-59
2021/05/17 10:10:22;;;;;;;1.90;0.80;;;18.00;72.20;;;;;;5122287;27;27849;-59
2021/05/17 10:14:01;;;;;;;3.13;0.52;;;18.10;72.90;;;;;;5106987;27;27361;-59
2021/05/17 10:17:28;;;;;;;2.22;0.82;;;18.10;74.30;;;;;;5123543;27;27355;-59
2021/05/17 10:21:02;;;;;;;2.00;0.80;;;18.20;72.70;;;;;;5106844;27;27427;-59
2021/05/17 10:24:18;;;;;;;2.50;0.73;;;18.10;73.90;;;;;;5125316;27;27865;-59
2021/05/17 10:27:51;;;;;;;2.90;0.60;;;18.10;75.60;;;;;;5123883;27;27390;-59
2021/05/17 10:31:16;;;;;;;1.42;0.60;;;18.10;75.00;;;;;;5125142;27;27366;-59
2021/05/17 10:34:23;;;;;;;1.52;0.50;;;18.60;75.80;;;;;;5124722;27;27351;-59
2021/05/17 10:37:19;;;;;;;2.35;0.60;;;19.00;75.20;;;;;;5108760;27;27351;-58
2021/05/17 10:40:32;;;;;;;0.93;0.47;;;19.30;75.20;;;;;;5111227;27;27398;-59
2021/05/17 10:43:55;;;;;;;2.03;0.50;;;19.30;71.80;;;;;;5121943;27;27307;-58
2021/05/17 10:46:51;;;;;;;2.42;0.55;;;19.20;71.50;;;;;;5121823;27;27434;-58
2021/05/17 10:50:12;;;;;;;2.33;0.60;;;19.20;73.10;;;;;;5124780;27;27370;-58
2021/05/17 10:53:36;;;;;;;0.95;0.43;;;19.00;70.60;;;;;;5121940;27;27395;-58
2021/05/17 10:57:03;;;;;;;2.03;0.50;;;19.00;70.80;;;;;;5124841;27;27478;-58
2021/05/17 11:00:24;;;;;;;1.98;0.20;;;18.90;70.70;;;;;;5124948;27;27332;-58
2021/05/17 11:03:33;;;;;;;1.55;0.80;;;18.90;70.60;;;;;;5124509;27;27414;-58
2021/05/17 11:06:40;;;;;;;3.80;0.40;;;19.10;72.20;;;;;;5123078;27;27484;-57
2021/05/17 11:09:41;;;;;;;1.50;0.40;;;19.50;71.80;;;;;;5124574;27;27671;-58
2021/05/17 11:12:30;;;;;;;2.33;0.47;;;19.80;69.80;;;;;;5092389;27;27483;-58
2021/05/17 11:15:40;;;;;;;1.08;0.43;;;20.00;70.40;;;;;;5124667;27;27419;-58
2021/05/17 11:19:13;;;;;;;1.30;0.30;;;20.00;68.90;;;;;;5124406;27;27419;-58
2021/05/17 11:23:08;;;;;;;2.00;0.60;;;20.00;68.00;;;;;;5123952;27;27615;-58
2021/05/17 11:26:11;;;;;;;1.17;0.45;;;19.80;66.70;;;;;;5096139;27;27363;-58
2021/05/17 11:29:10;;;;;;;2.42;0.50;;;19.70;65.80;;;;;;5124310;27;27350;-58
2021/05/17 11:32:09;;;;;;;1.63;0.52;;;19.60;65.80;;;;;;5124565;27;27552;-58
2021/05/17 11:35:25;;;;;;;0.20;0.20;;;19.70;66.80;;;;;;5124897;27;26844;-59
2021/05/17 11:38:15;;;;;;;0.50;0.15;;;19.80;65.90;;;;;;5122874;27;27382;-58
2021/05/17 11:41:18;;;;;;;1.13;0.20;;;20.00;67.50;;;;;;5109422;27;27436;-59
2021/05/17 11:44:18;;;;;;;0.43;0.20;;;20.20;67.40;;;;;;5111756;27;27439;-58
2021/05/17 11:47:20;;;;;;;0.35;0.20;;;20.30;66.20;;;;;;5105777;27;27455;-58
2021/05/17 11:50:08;;;;;;;0.60;0.30;;;20.30;66.90;;;;;;5124320;27;27320;-58
2021/05/17 11:53:06;;;;;;;1.75;0.32;;;20.40;66.60;;;;;;5121230;27;27399;-58
2021/05/17 11:56:14;;;;;;;0.57;0.30;;;20.30;65.70;;;;;;5124441;27;27352;-57
2021/05/17 11:59:29;;;;;;;0.60;0.20;;;20.10;64.00;;;;;;5124337;27;27335;-58
2021/05/17 12:02:29;;;;;;;0.40;0.40;;;19.90;63.40;;;;;;5126275;27;27312;-58
2021/05/17 12:05:55;;;;;;;2.35;0.40;;;19.80;63.80;;;;;;5127064;27;27451;-59
2021/05/17 12:09:07;;;;;;;1.35;0.30;;;19.90;65.10;;;;;;5126901;27;27468;-59
2021/05/17 12:12:22;;;;;;;0.77;0.25;;;20.20;66.60;;;;;;5127863;27;27394;-58
2021/05/17 12:15:11;;;;;;;1.85;0.68;;;20.60;70.50;;;;;;5127083;27;27445;-58
2021/05/17 12:18:09;;;;;;;0.70;0.40;;;20.70;68.50;;;;;;5108714;27;27381;-58
2021/05/17 12:21:10;;;;;;;1.10;0.30;;;20.80;68.00;;;;;;5127437;27;27372;-58
2021/05/17 12:24:01;;;;;;;0.47;0.30;;;20.80;65.70;;;;;;5127426;27;27458;-58
2021/05/17 12:26:54;;;;;;;2.53;0.60;;;20.80;68.30;;;;;;5123967;27;27441;-58
2021/05/17 12:30:17;;;;;;;1.65;1.25;;;20.80;66.20;;;;;;5127165;27;27945;-58
2021/05/17 12:33:12;;;;;;;2.00;0.70;;;20.90;66.90;;;;;;5126973;27;27407;-58
2021/05/17 12:36:18;;;;;;;0.90;0.55;;;20.90;67.80;;;;;;5111909;27;27332;-58
2021/05/17 12:39:24;;;;;;;0.50;0.40;;;20.80;68.20;;;;;;5108595;27;27389;-57
2021/05/17 12:42:13;;;;;;;1.55;0.50;;;20.90;68.50;;;;;;5108450;27;27354;-55
2021/05/17 12:45:49;;;;;;;2.95;0.50;;;20.90;69.00;;;;;;5126390;27;27430;-58
2021/05/17 12:49:27;;;;;;;0.35;0.30;;;20.90;67.80;;;;;;5123466;27;27470;-58
2021/05/17 12:53:04;;;;;;;0.28;0.22;;;20.80;68.00;;;;;;5126960;27;27481;-58
2021/05/17 12:56:33;;;;;;;0.77;0.50;;;20.80;67.30;;;;;;5126385;27;27940;-57
2021/05/17 12:59:45;;;;;;;0.28;0.25;;;20.70;65.80;;;;;;5123751;27;27457;-58
2021/05/17 13:03:16;;;;;;;1.40;0.50;;;20.70;65.40;;;;;;5126409;27;27646;-56
2021/05/17 13:06:43;;;;;;;0.80;0.40;;;20.60;64.70;;;;;;5111638;27;27387;-57
2021/05/17 13:09:42;;;;;;;2.28;0.43;;;20.50;62.40;;;;;;5088271;27;28070;-57
2021/05/17 13:12:50;;;;;;;2.50;0.40;;;20.40;61.20;;;;;;5083281;28;27527;-55
2021/05/17 13:15:59;;;;;;;2.70;0.40;;;20.20;60.60;;;;;;5083650;28;27391;-58
2021/05/17 13:19:13;;;;;;;1.45;0.40;;;20.10;61.30;;;;;;5083822;28;27500;-57
2021/05/17 13:25:27;;;;;;;3.30;0.50;;;20.10;65.60;;;;;;5083703;28;27409;-57
2021/05/17 13:31:56;;;;;;;0.60;0.30;;;20.20;63.80;;;;;;5080956;28;27601;-57
2021/05/17 13:35:07;;;;;;;3.55;0.57;;;20.20;62.80;;;;;;5082864;28;27459;-57
2021/05/17 13:38:16;;;;;;;1.90;0.30;;;20.30;63.50;;;;;;5083485;28;27623;-57
2021/05/17 13:41:10;;;;;;;1.98;0.35;;;20.40;65.40;;;;;;5082887;28;27456;-57
2021/05/17 13:44:38;;;;;;;0.95;0.40;;;20.50;65.30;;;;;;5093090;27;27530;-57
2021/05/17 13:48:04;;;;;;;0.93;0.30;;;20.60;64.70;;;;;;5124760;27;27865;-57
2021/05/17 13:51:11;;;;;;;0.20;0.20;;;20.50;63.10;;;;;;5122615;27;27479;-58
2021/05/17 13:54:09;;;;;;;2.92;0.70;;;20.50;63.50;;;;;;5125985;27;27402;-57
2021/05/17 13:57:01;;;;;;;0.40;0.30;;;20.30;62.10;;;;;;5125976;27;27332;-58
2021/05/17 14:00:07;;;;;;;1.55;0.30;;;20.10;62.40;;;;;;5125765;27;28020;-58
2021/05/17 14:03:17;;;;;;;1.20;0.50;;;20.00;62.10;;;;;;5125294;27;27472;-59
2021/05/17 14:06:09;;;;;;;0.68;0.20;;;19.80;62.40;;;;;;5081614;28;27441;-58
2021/05/17 14:09:03;;;;;;;1.02;0.30;;;19.80;64.20;;;;;;5083975;28;27671;-58
2021/05/17 14:12:13;;;;;;;1.17;0.32;;;19.70;64.80;;;;;;5084942;28;27851;-57
2021/05/17 14:15:18;;;;;;;2.95;0.50;;;19.70;66.80;;;;;;5084059;28;27421;-58
2021/05/17 14:18:05;;;;;;;2.13;0.30;;;19.70;67.60;;;;;;5083568;28;27467;-57
2021/05/17 14:21:22;;;;;;;2.90;0.43;;;19.80;69.40;;;;;;5083810;28;27435;-57
2021/05/17 14:24:28;;;;;;;1.08;0.40;;;19.80;70.00;;;;;;5084456;28;27378;-58
2021/05/17 14:27:20;;;;;;;0.63;0.40;;;19.90;69.70;;;;;;5084054;28;27323;-58
2021/05/17 14:30:25;;;;;;;1.80;0.57;;;19.80;68.80;;;;;;5084520;28;27369;-53
2021/05/17 14:33:18;;;;;;;0.80;0.38;;;19.90;68.70;;;;;;5083990;28;27593;-58
2021/05/17 14:37:10;;;;;;;0.80;0.40;;;19.90;68.00;;;;;;5084183;28;27404;-53
2021/05/17 14:40:22;;;;;;;1.92;0.40;;;20.00;69.10;;;;;;5084295;28;27431;-58
2021/05/17 14:43:28;;;;;;;1.48;0.50;;;20.20;70.40;;;;;;5084569;28;27324;-57
2021/05/17 14:46:25;;;;;;;1.02;0.43;;;20.40;70.60;;;;;;5084144;28;27395;-52
2021/05/17 14:49:30;;;;;;;4.82;0.68;;;20.50;68.90;;;;;;5083856;28;27811;-57
2021/05/17 14:52:15;;;;;;;0.63;0.35;;;20.60;68.80;;;;;;5083596;28;27440;-55
2021/05/17 14:55:45;;;;;;;0.73;0.25;;;20.70;67.30;;;;;;5084359;28;27545;-58
2021/05/17 14:59:17;;;;;;;1.92;0.60;;;20.80;66.30;;;;;;5083030;28;28331;-57
2021/05/17 15:02:29;;;;;;;0.30;0.20;;;21.00;66.70;;;;;;5083980;28;27508;-56
2021/05/17 15:05:30;;;;;;;0.60;0.20;;;21.00;64.90;;;;;;5117561;27;27363;-58
2021/05/17 15:08:38;;;;;;;0.65;0.40;;;20.90;64.30;;;;;;5082919;27;27399;-58
2021/05/17 15:11:35;;;;;;;0.20;0.20;;;20.90;63.40;;;;;;5124634;27;27340;-57
2021/05/17 15:14:56;;;;;;;1.70;1.30;;;20.80;61.40;;;;;;5124968;27;27453;-57
2021/05/17 15:18:10;;;;;;;1.98;0.73;;;20.70;61.50;;;;;;5124154;27;27341;-57
2021/05/17 15:21:55;;;;;;;1.13;0.93;;;20.60;60.70;;;;;;5124678;27;27449;-58
2021/05/17 15:25:05;;;;;;;2.80;2.03;;;20.50;61.40;;;;;;5124612;27;27462;-58
2021/05/17 15:28:11;;;;;;;3.50;2.47;;;20.40;61.00;;;;;;5121190;27;27371;-57
2021/05/17 15:31:38;;;;;;;5.07;4.07;;;20.30;61.90;;;;;;5124238;27;27483;-57
2021/05/17 15:35:05;;;;;;;7.07;4.60;;;20.30;61.30;;;;;;5123892;27;27483;-57
2021/05/17 15:37:56;;;;;;;5.00;3.15;;;20.20;60.40;;;;;;5110533;27;27533;-57
2021/05/17 15:41:03;;;;;;;3.67;2.13;;;20.20;60.20;;;;;;5128287;27;27833;-57
2021/05/17 15:44:16;;;;;;;2.63;1.45;;;20.00;60.00;;;;;;5126690;27;27469;-57
2021/05/17 15:47:39;;;;;;;2.05;1.33;;;20.00;61.00;;;;;;5128297;27;27442;-57
2021/05/17 15:50:46;;;;;;;4.97;1.27;;;19.80;61.20;;;;;;5127836;27;27398;-57
2021/05/17 15:53:44;;;;;;;1.45;1.00;;;19.70;62.20;;;;;;5127677;27;28082;-57
2021/05/17 15:56:41;;;;;;;1.48;1.00;;;19.60;61.80;;;;;;5127677;27;27469;-57
2021/05/17 15:59:55;;;;;;;1.00;0.70;;;19.60;61.00;;;;;;5127799;27;27383;-57
2021/05/17 16:03:32;;;;;;;1.10;0.75;;;19.60;61.00;;;;;;5127977;27;27447;-51
2021/05/17 16:06:25;;;;;;;4.05;0.43;;;19.60;60.70;;;;;;5127890;27;27403;-55
2021/05/17 16:09:57;;;;;;;0.50;0.50;;;19.60;60.60;;;;;;5123948;27;27324;-56
2021/05/17 16:17:46;;;;;;;0.70;0.47;;;19.70;61.90;;;;;;5120470;27;27545;-58
2021/05/17 16:21:25;;;;;;;0.50;0.40;;;19.80;62.50;;;;;;5043830;28;27885;-57
2021/05/17 16:24:54;;;;;;;0.45;0.30;;;19.80;62.60;;;;;;5043335;28;27536;-57
2021/05/17 16:28:21;;;;;;;0.47;0.47;;;19.90;63.30;;;;;;5029861;28;27386;-57
2021/05/17 16:32:28;;;;;;;0.50;0.43;;;19.80;63.20;;;;;;5040836;28;27041;-55
2021/05/17 16:36:23;;;;;;;0.52;0.30;;;19.90;63.30;;;;;;5040905;28;27445;-58
2021/05/17 16:40:18;;;;;;;1.42;0.50;;;19.90;62.70;;;;;;5043529;28;27561;-58
2021/05/17 16:44:13;;;;;;;0.50;0.40;;;19.90;61.70;;;;;;5040907;28;27365;-56
2021/05/17 16:48:00;;;;;;;0.60;0.40;;;19.90;61.10;;;;;;5042865;28;27438;-57
2021/05/17 16:51:54;;;;;;;0.75;0.57;;;19.80;61.40;;;;;;5041710;28;27460;-57
2021/05/17 16:55:41;;;;;;;0.52;0.30;;;19.70;59.60;;;;;;5125410;27;27586;-57
2021/05/17 16:59:36;;;;;;;0.82;0.22;;;19.70;59.70;;;;;;5123534;27;27471;-58
2021/05/17 17:03:42;;;;;;;2.08;0.32;;;19.60;60.10;;;;;;5123186;27;27483;-57